PACV METAR and TAF weather

Enter ICAO airport designator
Station Type Date Time Source
PACV METAR 2020/01/21 09:33 UTC NOAA

PACV 210933Z 11010KT 2 1/2SM -SN FEW020 BKN025 OVC048 02/M01 A2950 RMK AO2 SNB30 P0000 T00171011


Station Type Date Time Source
PACV Decoded METAR 2020/01/21 09:33 UTC NOAA

MERLE K. SMITH AIRPORT, AK, United States (PACV) 60-30N 145-29W 13M
Jan 21, 2020 - 04:33 AM EST / 2020.01.21 0933 UTC
Wind: from the ESE (110 degrees) at 12 MPH (10 KT):0
Visibility: 2 1/2 mile(s):0
Sky conditions: overcast
Weather: light snow
Precipitation last hour: A trace
Temperature: 35.1 F (1.7 C)
Dew Point: 30.0 F (-1.1 C)
Relative Humidity: 81%
Pressure (altimeter): 29.5 in. Hg (998 hPa)
ob: PACV 210933Z 11010KT 2 1/2SM -SN FEW020 BKN025 OVC048 02/M01 A2950 RMK AO2 SNB30 P0000 T00171011
cycle: 9

Station Type Date Time Source
PACV TAF 2020/01/21 06:51 UTC NOAA

TAF
AMD PACV 210548Z 2106/2206 10009KT P6SM VCSH SCT025 OVC045
TEMPO 2106/2110 1 1/2SM -SHSN OVC025

Example: see airport list